sensor_id;sensor_type;location;lat;lon;timestamp;P1;durP1;ratioP1;P2;durP2;ratioP2
51384;SDS011;37478;55.682;37.462;2023-11-22T00:00:56;8.37;;;4.30;;
51384;SDS011;37478;55.682;37.462;2023-11-22T00:03:22;8.77;;;4.70;;
51384;SDS011;37478;55.682;37.462;2023-11-22T00:05:49;11.13;;;5.33;;
51384;SDS011;37478;55.682;37.462;2023-11-22T00:08:14;8.23;;;4.47;;
51384;SDS011;37478;55.682;37.462;2023-11-22T00:10:39;5.63;;;3.53;;
51384;SDS011;37478;55.682;37.462;2023-11-22T00:13:05;7.77;;;4.17;;
51384;SDS011;37478;55.682;37.462;2023-11-22T00:15:30;8.80;;;4.80;;
51384;SDS011;37478;55.682;37.462;2023-11-22T00:17:55;10.40;;;5.67;;
51384;SDS011;37478;55.682;37.462;2023-11-22T00:20:22;9.90;;;4.30;;
51384;SDS011;37478;55.682;37.462;2023-11-22T00:22:48;8.90;;;4.73;;
51384;SDS011;37478;55.682;37.462;2023-11-22T00:25:13;6.27;;;4.33;;
51384;SDS011;37478;55.682;37.462;2023-11-22T00:27:39;7.00;;;3.43;;
51384;SDS011;37478;55.682;37.462;2023-11-22T00:30:04;10.90;;;5.27;;
51384;SDS011;37478;55.682;37.462;2023-11-22T00:32:30;9.97;;;4.90;;
51384;SDS011;37478;55.682;37.462;2023-11-22T00:34:55;10.83;;;4.50;;
51384;SDS011;37478;55.682;37.462;2023-11-22T00:37:20;9.70;;;3.70;;
51384;SDS011;37478;55.682;37.462;2023-11-22T00:39:46;9.87;;;4.03;;
51384;SDS011;37478;55.682;37.462;2023-11-22T00:42:11;11.23;;;5.53;;
51384;SDS011;37478;55.682;37.462;2023-11-22T00:44:36;8.97;;;4.83;;
51384;SDS011;37478;55.682;37.462;2023-11-22T00:47:02;12.90;;;5.37;;
51384;SDS011;37478;55.682;37.462;2023-11-22T00:49:28;9.03;;;4.97;;
51384;SDS011;37478;55.682;37.462;2023-11-22T00:51:53;8.43;;;5.00;;
51384;SDS011;37478;55.682;37.462;2023-11-22T00:54:19;8.73;;;4.10;;
51384;SDS011;37478;55.682;37.462;2023-11-22T00:56:45;9.80;;;4.37;;
51384;SDS011;37478;55.682;37.462;2023-11-22T00:59:10;8.53;;;4.53;;
51384;SDS011;37478;55.682;37.462;2023-11-22T01:01:36;9.37;;;5.70;;
51384;SDS011;37478;55.682;37.462;2023-11-22T01:04:01;6.53;;;3.63;;
51384;SDS011;37478;55.682;37.462;2023-11-22T01:06:26;13.10;;;5.33;;
51384;SDS011;37478;55.682;37.462;2023-11-22T01:08:52;13.27;;;6.63;;
51384;SDS011;37478;55.682;37.462;2023-11-22T01:11:17;15.70;;;5.00;;
51384;SDS011;37478;55.682;37.462;2023-11-22T01:13:42;10.63;;;4.47;;
51384;SDS011;37478;55.682;37.462;2023-11-22T01:16:09;12.07;;;4.23;;
51384;SDS011;37478;55.682;37.462;2023-11-22T01:18:34;9.83;;;4.30;;
51384;SDS011;37478;55.682;37.462;2023-11-22T01:21:00;10.33;;;3.83;;
51384;SDS011;37478;55.682;37.462;2023-11-22T01:23:25;11.03;;;5.27;;
51384;SDS011;37478;55.682;37.462;2023-11-22T01:25:50;11.13;;;5.90;;
51384;SDS011;37478;55.682;37.462;2023-11-22T01:28:16;7.07;;;3.57;;
51384;SDS011;37478;55.682;37.462;2023-11-22T01:30:42;9.90;;;4.67;;
51384;SDS011;37478;55.682;37.462;2023-11-22T01:33:10;10.00;;;5.53;;
51384;SDS011;37478;55.682;37.462;2023-11-22T01:35:36;7.70;;;4.80;;
51384;SDS011;37478;55.682;37.462;2023-11-22T01:38:01;9.40;;;5.00;;
51384;SDS011;37478;55.682;37.462;2023-11-22T01:40:29;10.47;;;4.73;;
51384;SDS011;37478;55.682;37.462;2023-11-22T01:42:54;15.07;;;6.07;;
51384;SDS011;37478;55.682;37.462;2023-11-22T01:45:20;11.77;;;5.37;;
51384;SDS011;37478;55.682;37.462;2023-11-22T01:47:45;12.03;;;7.10;;
51384;SDS011;37478;55.682;37.462;2023-11-22T01:50:11;13.47;;;5.60;;
51384;SDS011;37478;55.682;37.462;2023-11-22T01:52:37;16.37;;;8.10;;
51384;SDS011;37478;55.682;37.462;2023-11-22T01:55:03;11.67;;;5.83;;
51384;SDS011;37478;55.682;37.462;2023-11-22T01:57:30;20.10;;;8.00;;
51384;SDS011;37478;55.682;37.462;2023-11-22T01:59:55;13.43;;;6.33;;
51384;SDS011;37478;55.682;37.462;2023-11-22T02:02:21;9.30;;;5.07;;
51384;SDS011;37478;55.682;37.462;2023-11-22T02:04:46;10.97;;;5.70;;
51384;SDS011;37478;55.682;37.462;2023-11-22T02:07:11;12.20;;;5.60;;
51384;SDS011;37478;55.682;37.462;2023-11-22T02:09:37;10.30;;;6.10;;
51384;SDS011;37478;55.682;37.462;2023-11-22T02:12:02;14.97;;;7.50;;
51384;SDS011;37478;55.682;37.462;2023-11-22T02:14:28;15.07;;;6.30;;
51384;SDS011;37478;55.682;37.462;2023-11-22T02:16:53;11.17;;;6.17;;
51384;SDS011;37478;55.682;37.462;2023-11-22T02:19:18;21.30;;;6.70;;
51384;SDS011;37478;55.682;37.462;2023-11-22T02:21:44;10.57;;;5.27;;
51384;SDS011;37478;55.682;37.462;2023-11-22T02:24:10;9.67;;;4.63;;
51384;SDS011;37478;55.682;37.462;2023-11-22T02:26:36;8.17;;;4.43;;
51384;SDS011;37478;55.682;37.462;2023-11-22T02:29:02;7.73;;;3.17;;
51384;SDS011;37478;55.682;37.462;2023-11-22T02:31:29;8.10;;;4.87;;
51384;SDS011;37478;55.682;37.462;2023-11-22T02:33:54;8.33;;;4.90;;
51384;SDS011;37478;55.682;37.462;2023-11-22T02:36:22;7.20;;;4.67;;
51384;SDS011;37478;55.682;37.462;2023-11-22T02:38:48;6.97;;;3.80;;
51384;SDS011;37478;55.682;37.462;2023-11-22T02:41:13;7.50;;;3.40;;
51384;SDS011;37478;55.682;37.462;2023-11-22T02:43:38;5.60;;;3.10;;
51384;SDS011;37478;55.682;37.462;2023-11-22T02:46:04;8.90;;;4.17;;
51384;SDS011;37478;55.682;37.462;2023-11-22T02:48:29;10.40;;;5.20;;
51384;SDS011;37478;55.682;37.462;2023-11-22T02:50:54;11.18;;;4.50;;
51384;SDS011;37478;55.682;37.462;2023-11-22T02:53:20;8.23;;;4.07;;
51384;SDS011;37478;55.682;37.462;2023-11-22T02:55:46;13.10;;;4.97;;
51384;SDS011;37478;55.682;37.462;2023-11-22T02:58:11;5.63;;;3.50;;
51384;SDS011;37478;55.682;37.462;2023-11-22T03:00:37;10.33;;;5.40;;
51384;SDS011;37478;55.682;37.462;2023-11-22T03:03:03;9.13;;;4.67;;
51384;SDS011;37478;55.682;37.462;2023-11-22T03:05:33;8.20;;;3.67;;
51384;SDS011;37478;55.682;37.462;2023-11-22T03:07:58;7.53;;;2.93;;
51384;SDS011;37478;55.682;37.462;2023-11-22T03:10:24;7.83;;;4.50;;
51384;SDS011;37478;55.682;37.462;2023-11-22T03:12:49;8.83;;;4.80;;
51384;SDS011;37478;55.682;37.462;2023-11-22T03:15:14;9.97;;;5.73;;
51384;SDS011;37478;55.682;37.462;2023-11-22T03:17:39;9.57;;;4.23;;
51384;SDS011;37478;55.682;37.462;2023-11-22T03:20:05;5.53;;;3.73;;
51384;SDS011;37478;55.682;37.462;2023-11-22T03:22:34;6.07;;;3.43;;
51384;SDS011;37478;55.682;37.462;2023-11-22T03:25:01;18.87;;;5.00;;
51384;SDS011;37478;55.682;37.462;2023-11-22T03:27:26;9.07;;;4.67;;
51384;SDS011;37478;55.682;37.462;2023-11-22T03:29:51;9.53;;;5.10;;
51384;SDS011;37478;55.682;37.462;2023-11-22T03:32:16;8.27;;;4.07;;
51384;SDS011;37478;55.682;37.462;2023-11-22T03:34:42;6.50;;;3.47;;
51384;SDS011;37478;55.682;37.462;2023-11-22T03:37:07;9.37;;;5.00;;
51384;SDS011;37478;55.682;37.462;2023-11-22T03:39:33;5.97;;;3.77;;
51384;SDS011;37478;55.682;37.462;2023-11-22T03:41:58;8.63;;;3.93;;
51384;SDS011;37478;55.682;37.462;2023-11-22T03:44:23;12.23;;;4.83;;
51384;SDS011;37478;55.682;37.462;2023-11-22T03:46:48;9.30;;;4.70;;
51384;SDS011;37478;55.682;37.462;2023-11-22T03:49:14;5.47;;;3.33;;
51384;SDS011;37478;55.682;37.462;2023-11-22T03:51:42;6.67;;;3.80;;
51384;SDS011;37478;55.682;37.462;2023-11-22T03:54:08;9.47;;;3.63;;
51384;SDS011;37478;55.682;37.462;2023-11-22T03:56:35;7.27;;;4.20;;
51384;SDS011;37478;55.682;37.462;2023-11-22T03:59:00;11.60;;;4.80;;
51384;SDS011;37478;55.682;37.462;2023-11-22T04:01:25;5.03;;;3.27;;
51384;SDS011;37478;55.682;37.462;2023-11-22T04:03:51;7.13;;;3.70;;
51384;SDS011;37478;55.682;37.462;2023-11-22T04:06:17;10.60;;;3.83;;
51384;SDS011;37478;55.682;37.462;2023-11-22T04:08:43;7.93;;;4.30;;
51384;SDS011;37478;55.682;37.462;2023-11-22T04:11:09;7.70;;;4.07;;
51384;SDS011;37478;55.682;37.462;2023-11-22T04:13:35;11.63;;;4.60;;
51384;SDS011;37478;55.682;37.462;2023-11-22T04:16:00;12.23;;;4.13;;
51384;SDS011;37478;55.682;37.462;2023-11-22T04:18:25;7.40;;;3.30;;
51384;SDS011;37478;55.682;37.462;2023-11-22T04:20:51;12.33;;;6.33;;
51384;SDS011;37478;55.682;37.462;2023-11-22T04:23:17;12.50;;;4.77;;
51384;SDS011;37478;55.682;37.462;2023-11-22T04:25:42;9.03;;;4.00;;
51384;SDS011;37478;55.682;37.462;2023-11-22T04:28:08;8.50;;;4.83;;
51384;SDS011;37478;55.682;37.462;2023-11-22T04:30:37;8.53;;;4.70;;
51384;SDS011;37478;55.682;37.462;2023-11-22T04:33:02;8.33;;;4.17;;
51384;SDS011;37478;55.682;37.462;2023-11-22T04:35:27;7.60;;;5.00;;
51384;SDS011;37478;55.682;37.462;2023-11-22T04:37:53;13.90;;;4.83;;
51384;SDS011;37478;55.682;37.462;2023-11-22T04:40:20;10.97;;;7.30;;
51384;SDS011;37478;55.682;37.462;2023-11-22T04:42:45;9.53;;;5.17;;
51384;SDS011;37478;55.682;37.462;2023-11-22T04:45:11;8.17;;;4.33;;
51384;SDS011;37478;55.682;37.462;2023-11-22T04:47:36;6.77;;;4.37;;
51384;SDS011;37478;55.682;37.462;2023-11-22T04:50:01;7.53;;;2.83;;
51384;SDS011;37478;55.682;37.462;2023-11-22T04:52:27;8.63;;;5.10;;
51384;SDS011;37478;55.682;37.462;2023-11-22T04:54:52;10.53;;;5.00;;
51384;SDS011;37478;55.682;37.462;2023-11-22T04:57:17;11.77;;;5.70;;
51384;SDS011;37478;55.682;37.462;2023-11-22T04:59:43;8.43;;;4.80;;
51384;SDS011;37478;55.682;37.462;2023-11-22T05:02:08;7.17;;;4.23;;
51384;SDS011;37478;55.682;37.462;2023-11-22T05:04:33;11.77;;;6.00;;
51384;SDS011;37478;55.682;37.462;2023-11-22T05:06:58;11.33;;;5.07;;
51384;SDS011;37478;55.682;37.462;2023-11-22T05:09:24;8.47;;;4.17;;
51384;SDS011;37478;55.682;37.462;2023-11-22T05:11:49;7.67;;;3.50;;
51384;SDS011;37478;55.682;37.462;2023-11-22T05:14:15;7.57;;;3.97;;
51384;SDS011;37478;55.682;37.462;2023-11-22T05:16:40;16.83;;;5.90;;
51384;SDS011;37478;55.682;37.462;2023-11-22T05:19:05;12.97;;;7.40;;
51384;SDS011;37478;55.682;37.462;2023-11-22T05:21:31;17.93;;;6.33;;
51384;SDS011;37478;55.682;37.462;2023-11-22T05:23:57;10.30;;;6.47;;
51384;SDS011;37478;55.682;37.462;2023-11-22T05:26:22;9.87;;;4.40;;
51384;SDS011;37478;55.682;37.462;2023-11-22T05:28:48;11.00;;;5.23;;
51384;SDS011;37478;55.682;37.462;2023-11-22T05:31:13;9.77;;;5.07;;
51384;SDS011;37478;55.682;37.462;2023-11-22T05:33:39;6.30;;;3.63;;
51384;SDS011;37478;55.682;37.462;2023-11-22T05:36:05;18.20;;;6.03;;
51384;SDS011;37478;55.682;37.462;2023-11-22T05:38:30;13.97;;;5.40;;
51384;SDS011;37478;55.682;37.462;2023-11-22T05:40:56;12.50;;;5.40;;
51384;SDS011;37478;55.682;37.462;2023-11-22T05:43:21;12.80;;;4.90;;
51384;SDS011;37478;55.682;37.462;2023-11-22T05:45:50;12.73;;;5.60;;
51384;SDS011;37478;55.682;37.462;2023-11-22T05:48:16;7.57;;;5.47;;
51384;SDS011;37478;55.682;37.462;2023-11-22T05:50:41;13.77;;;6.20;;
51384;SDS011;37478;55.682;37.462;2023-11-22T05:53:06;10.23;;;5.37;;
51384;SDS011;37478;55.682;37.462;2023-11-22T05:55:32;13.10;;;6.37;;
51384;SDS011;37478;55.682;37.462;2023-11-22T05:57:57;13.07;;;5.80;;
51384;SDS011;37478;55.682;37.462;2023-11-22T06:00:22;9.57;;;5.10;;
51384;SDS011;37478;55.682;37.462;2023-11-22T06:02:47;12.37;;;4.73;;
51384;SDS011;37478;55.682;37.462;2023-11-22T06:05:13;16.23;;;4.90;;
51384;SDS011;37478;55.682;37.462;2023-11-22T06:07:38;9.90;;;6.17;;
51384;SDS011;37478;55.682;37.462;2023-11-22T06:10:04;15.63;;;4.90;;
51384;SDS011;37478;55.682;37.462;2023-11-22T06:12:29;6.73;;;4.13;;
51384;SDS011;37478;55.682;37.462;2023-11-22T06:14:54;8.90;;;5.40;;
51384;SDS011;37478;55.682;37.462;2023-11-22T06:17:19;8.57;;;3.67;;
51384;SDS011;37478;55.682;37.462;2023-11-22T06:19:45;8.57;;;4.17;;
51384;SDS011;37478;55.682;37.462;2023-11-22T06:22:11;15.23;;;5.37;;
51384;SDS011;37478;55.682;37.462;2023-11-22T06:24:36;9.73;;;4.90;;
51384;SDS011;37478;55.682;37.462;2023-11-22T06:27:02;6.13;;;3.60;;
51384;SDS011;37478;55.682;37.462;2023-11-22T06:29:28;20.67;;;5.00;;
51384;SDS011;37478;55.682;37.462;2023-11-22T06:31:54;12.43;;;5.53;;
51384;SDS011;37478;55.682;37.462;2023-11-22T06:34:19;6.63;;;3.33;;
51384;SDS011;37478;55.682;37.462;2023-11-22T06:36:44;8.73;;;3.83;;
51384;SDS011;37478;55.682;37.462;2023-11-22T06:39:10;13.77;;;4.33;;
51384;SDS011;37478;55.682;37.462;2023-11-22T06:41:39;7.67;;;3.00;;
51384;SDS011;37478;55.682;37.462;2023-11-22T06:44:04;5.97;;;3.80;;
51384;SDS011;37478;55.682;37.462;2023-11-22T06:46:29;7.27;;;4.63;;
51384;SDS011;37478;55.682;37.462;2023-11-22T06:48:55;5.50;;;2.47;;
51384;SDS011;37478;55.682;37.462;2023-11-22T06:51:21;9.70;;;3.83;;
51384;SDS011;37478;55.682;37.462;2023-11-22T06:53:47;8.87;;;5.40;;
51384;SDS011;37478;55.682;37.462;2023-11-22T06:56:12;11.33;;;3.83;;
51384;SDS011;37478;55.682;37.462;2023-11-22T06:58:37;3.23;;;2.57;;
51384;SDS011;37478;55.682;37.462;2023-11-22T07:01:03;9.47;;;3.87;;
51384;SDS011;37478;55.682;37.462;2023-11-22T07:03:28;6.97;;;3.23;;
51384;SDS011;37478;55.682;37.462;2023-11-22T07:05:53;5.53;;;3.80;;
51384;SDS011;37478;55.682;37.462;2023-11-22T07:08:19;3.50;;;2.50;;
51384;SDS011;37478;55.682;37.462;2023-11-22T07:10:45;3.47;;;2.30;;
51384;SDS011;37478;55.682;37.462;2023-11-22T07:13:10;4.87;;;1.77;;
51384;SDS011;37478;55.682;37.462;2023-11-22T07:15:36;6.97;;;2.90;;
51384;SDS011;37478;55.682;37.462;2023-11-22T07:18:01;3.47;;;2.07;;
51384;SDS011;37478;55.682;37.462;2023-11-22T07:20:27;3.60;;;2.97;;
51384;SDS011;37478;55.682;37.462;2023-11-22T07:22:52;9.73;;;3.13;;
51384;SDS011;37478;55.682;37.462;2023-11-22T07:25:22;3.20;;;1.93;;
51384;SDS011;37478;55.682;37.462;2023-11-22T07:27:50;4.53;;;2.60;;
51384;SDS011;37478;55.682;37.462;2023-11-22T07:30:16;4.27;;;2.63;;
51384;SDS011;37478;55.682;37.462;2023-11-22T07:32:41;9.03;;;2.33;;
51384;SDS011;37478;55.682;37.462;2023-11-22T07:35:07;4.30;;;2.60;;
51384;SDS011;37478;55.682;37.462;2023-11-22T07:37:34;3.03;;;1.73;;
51384;SDS011;37478;55.682;37.462;2023-11-22T07:40:00;5.67;;;3.50;;
51384;SDS011;37478;55.682;37.462;2023-11-22T07:42:27;2.93;;;2.43;;
51384;SDS011;37478;55.682;37.462;2023-11-22T07:44:53;3.97;;;2.60;;
51384;SDS011;37478;55.682;37.462;2023-11-22T07:47:21;3.43;;;2.30;;
51384;SDS011;37478;55.682;37.462;2023-11-22T07:49:48;4.50;;;2.50;;
51384;SDS011;37478;55.682;37.462;2023-11-22T07:52:13;5.77;;;2.97;;
51384;SDS011;37478;55.682;37.462;2023-11-22T07:54:39;9.87;;;3.53;;
51384;SDS011;37478;55.682;37.462;2023-11-22T07:57:05;5.90;;;4.03;;
51384;SDS011;37478;55.682;37.462;2023-11-22T07:59:30;4.53;;;2.30;;
51384;SDS011;37478;55.682;37.462;2023-11-22T08:01:56;5.37;;;3.70;;
51384;SDS011;37478;55.682;37.462;2023-11-22T08:04:22;5.07;;;2.67;;
51384;SDS011;37478;55.682;37.462;2023-11-22T08:06:48;2.50;;;2.17;;
51384;SDS011;37478;55.682;37.462;2023-11-22T08:09:14;2.97;;;2.23;;
51384;SDS011;37478;55.682;37.462;2023-11-22T08:11:41;2.13;;;1.87;;
51384;SDS011;37478;55.682;37.462;2023-11-22T08:14:06;4.03;;;2.23;;
51384;SDS011;37478;55.682;37.462;2023-11-22T08:16:33;7.63;;;3.40;;
51384;SDS011;37478;55.682;37.462;2023-11-22T08:19:03;3.53;;;2.00;;
51384;SDS011;37478;55.682;37.462;2023-11-22T08:21:28;2.90;;;1.63;;
51384;SDS011;37478;55.682;37.462;2023-11-22T08:23:54;3.87;;;1.77;;
51384;SDS011;37478;55.682;37.462;2023-11-22T08:26:19;6.60;;;2.50;;
51384;SDS011;37478;55.682;37.462;2023-11-22T08:28:44;2.23;;;1.67;;
51384;SDS011;37478;55.682;37.462;2023-11-22T08:31:10;3.33;;;1.90;;
51384;SDS011;37478;55.682;37.462;2023-11-22T08:33:36;3.27;;;1.90;;
51384;SDS011;37478;55.682;37.462;2023-11-22T08:36:01;4.70;;;2.73;;
51384;SDS011;37478;55.682;37.462;2023-11-22T08:38:29;4.13;;;2.50;;
51384;SDS011;37478;55.682;37.462;2023-11-22T08:40:54;4.72;;;3.20;;
51384;SDS011;37478;55.682;37.462;2023-11-22T08:43:25;4.20;;;2.33;;
51384;SDS011;37478;55.682;37.462;2023-11-22T08:45:50;2.80;;;1.73;;
51384;SDS011;37478;55.682;37.462;2023-11-22T08:48:16;3.73;;;2.70;;
51384;SDS011;37478;55.682;37.462;2023-11-22T08:50:42;7.93;;;4.50;;
51384;SDS011;37478;55.682;37.462;2023-11-22T08:53:09;9.00;;;4.23;;
51384;SDS011;37478;55.682;37.462;2023-11-22T08:55:34;7.20;;;3.70;;
51384;SDS011;37478;55.682;37.462;2023-11-22T08:57:59;6.67;;;4.20;;
51384;SDS011;37478;55.682;37.462;2023-11-22T09:00:25;6.70;;;4.20;;
51384;SDS011;37478;55.682;37.462;2023-11-22T09:02:53;4.03;;;2.53;;
51384;SDS011;37478;55.682;37.462;2023-11-22T09:05:20;9.63;;;4.30;;
51384;SDS011;37478;55.682;37.462;2023-11-22T09:07:47;9.67;;;4.03;;
51384;SDS011;37478;55.682;37.462;2023-11-22T09:10:12;6.63;;;3.70;;
51384;SDS011;37478;55.682;37.462;2023-11-22T09:12:39;9.33;;;3.50;;
51384;SDS011;37478;55.682;37.462;2023-11-22T09:15:08;9.93;;;3.80;;
51384;SDS011;37478;55.682;37.462;2023-11-22T09:17:37;7.03;;;3.37;;
51384;SDS011;37478;55.682;37.462;2023-11-22T09:20:08;8.27;;;4.63;;
51384;SDS011;37478;55.682;37.462;2023-11-22T09:22:36;4.40;;;3.07;;
51384;SDS011;37478;55.682;37.462;2023-11-22T09:25:04;7.50;;;3.60;;
51384;SDS011;37478;55.682;37.462;2023-11-22T09:27:33;7.93;;;2.97;;
51384;SDS011;37478;55.682;37.462;2023-11-22T09:29:59;5.90;;;2.90;;
51384;SDS011;37478;55.682;37.462;2023-11-22T09:32:24;11.00;;;3.43;;
51384;SDS011;37478;55.682;37.462;2023-11-22T09:34:49;7.37;;;3.23;;
51384;SDS011;37478;55.682;37.462;2023-11-22T09:37:15;12.40;;;3.40;;
51384;SDS011;37478;55.682;37.462;2023-11-22T09:39:40;9.93;;;3.03;;
51384;SDS011;37478;55.682;37.462;2023-11-22T09:42:05;5.00;;;2.70;;
51384;SDS011;37478;55.682;37.462;2023-11-22T09:44:31;5.07;;;2.30;;
51384;SDS011;37478;55.682;37.462;2023-11-22T09:46:56;4.47;;;2.10;;
51384;SDS011;37478;55.682;37.462;2023-11-22T09:49:24;3.33;;;2.08;;
51384;SDS011;37478;55.682;37.462;2023-11-22T09:51:50;2.80;;;2.47;;
51384;SDS011;37478;55.682;37.462;2023-11-22T09:54:16;2.77;;;2.33;;
51384;SDS011;37478;55.682;37.462;2023-11-22T09:56:43;5.13;;;2.90;;
51384;SDS011;37478;55.682;37.462;2023-11-22T09:59:17;13.90;;;2.37;;
51384;SDS011;37478;55.682;37.462;2023-11-22T10:01:43;4.22;;;2.63;;
51384;SDS011;37478;55.682;37.462;2023-11-22T10:04:09;7.05;;;2.70;;
51384;SDS011;37478;55.682;37.462;2023-11-22T10:06:34;9.90;;;2.93;;
51384;SDS011;37478;55.682;37.462;2023-11-22T10:09:03;6.30;;;2.88;;
51384;SDS011;37478;55.682;37.462;2023-11-22T10:11:35;6.30;;;2.78;;
51384;SDS011;37478;55.682;37.462;2023-11-22T10:14:03;6.25;;;3.65;;
51384;SDS011;37478;55.682;37.462;2023-11-22T10:16:29;4.17;;;2.20;;
51384;SDS011;37478;55.682;37.462;2023-11-22T10:18:55;5.85;;;2.47;;
51384;SDS011;37478;55.682;37.462;2023-11-22T10:21:24;6.05;;;2.92;;
51384;SDS011;37478;55.682;37.462;2023-11-22T10:24:22;3.90;;;2.40;;
51384;SDS011;37478;55.682;37.462;2023-11-22T10:26:40;4.15;;;2.20;;
51384;SDS011;37478;55.682;37.462;2023-11-22T10:29:05;8.60;;;2.80;;
51384;SDS011;37478;55.682;37.462;2023-11-22T10:31:31;3.70;;;2.45;;
51384;SDS011;37478;55.682;37.462;2023-11-22T10:33:59;5.53;;;3.03;;
51384;SDS011;37478;55.682;37.462;2023-11-22T10:36:24;9.10;;;4.30;;
51384;SDS011;37478;55.682;37.462;2023-11-22T10:38:50;5.15;;;2.72;;
51384;SDS011;37478;55.682;37.462;2023-11-22T10:41:19;6.53;;;3.30;;
51384;SDS011;37478;55.682;37.462;2023-11-22T10:43:45;7.20;;;3.60;;
51384;SDS011;37478;55.682;37.462;2023-11-22T10:46:10;2.93;;;2.07;;
51384;SDS011;37478;55.682;37.462;2023-11-22T10:48:37;7.15;;;3.30;;
51384;SDS011;37478;55.682;37.462;2023-11-22T10:51:04;6.57;;;3.53;;
51384;SDS011;37478;55.682;37.462;2023-11-22T10:53:34;6.07;;;2.73;;
51384;SDS011;37478;55.682;37.462;2023-11-22T10:56:15;2.67;;;1.80;;
51384;SDS011;37478;55.682;37.462;2023-11-22T10:58:50;8.35;;;2.17;;
51384;SDS011;37478;55.682;37.462;2023-11-22T11:01:16;3.97;;;2.60;;
51384;SDS011;37478;55.682;37.462;2023-11-22T11:04:03;4.00;;;1.92;;
51384;SDS011;37478;55.682;37.462;2023-11-22T11:06:35;1.83;;;1.50;;
51384;SDS011;37478;55.682;37.462;2023-11-22T11:09:01;3.97;;;2.22;;
51384;SDS011;37478;55.682;37.462;2023-11-22T11:11:30;9.50;;;3.17;;
51384;SDS011;37478;55.682;37.462;2023-11-22T11:13:56;6.88;;;3.47;;
51384;SDS011;37478;55.682;37.462;2023-11-22T11:16:22;3.83;;;2.47;;
51384;SDS011;37478;55.682;37.462;2023-11-22T11:18:48;2.80;;;2.38;;
51384;SDS011;37478;55.682;37.462;2023-11-22T11:21:14;7.20;;;4.05;;
51384;SDS011;37478;55.682;37.462;2023-11-22T11:23:40;4.15;;;2.80;;
51384;SDS011;37478;55.682;37.462;2023-11-22T11:26:24;4.32;;;2.92;;
51384;SDS011;37478;55.682;37.462;2023-11-22T11:28:51;4.97;;;2.45;;
51384;SDS011;37478;55.682;37.462;2023-11-22T11:31:16;6.00;;;2.97;;
51384;SDS011;37478;55.682;37.462;2023-11-22T11:36:24;3.85;;;2.60;;
51384;SDS011;37478;55.682;37.462;2023-11-22T11:38:50;8.68;;;4.13;;
51384;SDS011;37478;55.682;37.462;2023-11-22T11:41:16;4.70;;;2.35;;
51384;SDS011;37478;55.682;37.462;2023-11-22T11:46:16;10.43;;;3.25;;
51384;SDS011;37478;55.682;37.462;2023-11-22T11:48:47;7.65;;;2.90;;
51384;SDS011;37478;55.682;37.462;2023-11-22T11:51:17;12.98;;;3.53;;
51384;SDS011;37478;55.682;37.462;2023-11-22T11:53:43;5.53;;;2.53;;
51384;SDS011;37478;55.682;37.462;2023-11-22T11:56:09;3.58;;;2.67;;
51384;SDS011;37478;55.682;37.462;2023-11-22T11:58:35;5.45;;;3.17;;
51384;SDS011;37478;55.682;37.462;2023-11-22T12:01:00;5.90;;;2.42;;
51384;SDS011;37478;55.682;37.462;2023-11-22T12:03:27;5.20;;;2.88;;
51384;SDS011;37478;55.682;37.462;2023-11-22T12:05:53;6.07;;;2.92;;
51384;SDS011;37478;55.682;37.462;2023-11-22T12:08:18;14.43;;;3.38;;
51384;SDS011;37478;55.682;37.462;2023-11-22T12:10:43;5.15;;;2.88;;
51384;SDS011;37478;55.682;37.462;2023-11-22T12:13:13;10.13;;;3.60;;
51384;SDS011;37478;55.682;37.462;2023-11-22T12:15:38;14.23;;;3.78;;
51384;SDS011;37478;55.682;37.462;2023-11-22T12:18:04;9.50;;;3.78;;
51384;SDS011;37478;55.682;37.462;2023-11-22T12:20:30;6.30;;;3.67;;
51384;SDS011;37478;55.682;37.462;2023-11-22T12:22:58;8.57;;;4.65;;
51384;SDS011;37478;55.682;37.462;2023-11-22T12:25:27;12.00;;;5.40;;
51384;SDS011;37478;55.682;37.462;2023-11-22T12:27:54;8.60;;;3.70;;
51384;SDS011;37478;55.682;37.462;2023-11-22T12:30:32;11.47;;;5.03;;
51384;SDS011;37478;55.682;37.462;2023-11-22T12:33:04;11.80;;;3.90;;
51384;SDS011;37478;55.682;37.462;2023-11-22T12:35:30;9.88;;;3.58;;
51384;SDS011;37478;55.682;37.462;2023-11-22T12:37:55;8.40;;;4.63;;
51384;SDS011;37478;55.682;37.462;2023-11-22T12:40:20;8.10;;;3.20;;
51384;SDS011;37478;55.682;37.462;2023-11-22T12:42:52;7.90;;;3.90;;
51384;SDS011;37478;55.682;37.462;2023-11-22T12:45:24;10.27;;;3.83;;
51384;SDS011;37478;55.682;37.462;2023-11-22T12:47:50;11.73;;;3.75;;
51384;SDS011;37478;55.682;37.462;2023-11-22T12:50:28;5.60;;;3.27;;
51384;SDS011;37478;55.682;37.462;2023-11-22T12:52:54;8.83;;;4.80;;
51384;SDS011;37478;55.682;37.462;2023-11-22T12:55:20;11.70;;;4.53;;
51384;SDS011;37478;55.682;37.462;2023-11-22T12:57:55;8.33;;;4.00;;
51384;SDS011;37478;55.682;37.462;2023-11-22T13:00:20;5.30;;;3.70;;
51384;SDS011;37478;55.682;37.462;2023-11-22T13:02:46;20.17;;;4.67;;
51384;SDS011;37478;55.682;37.462;2023-11-22T13:05:12;7.67;;;3.53;;
51384;SDS011;37478;55.682;37.462;2023-11-22T13:07:40;18.17;;;5.13;;
51384;SDS011;37478;55.682;37.462;2023-11-22T13:10:08;10.50;;;5.50;;
51384;SDS011;37478;55.682;37.462;2023-11-22T13:12:34;14.00;;;6.20;;
51384;SDS011;37478;55.682;37.462;2023-11-22T13:15:00;7.80;;;3.83;;
51384;SDS011;37478;55.682;37.462;2023-11-22T13:17:25;10.50;;;7.17;;
51384;SDS011;37478;55.682;37.462;2023-11-22T13:19:50;20.10;;;6.40;;
51384;SDS011;37478;55.682;37.462;2023-11-22T13:22:16;14.80;;;5.53;;
51384;SDS011;37478;55.682;37.462;2023-11-22T13:24:41;16.90;;;5.03;;
51384;SDS011;37478;55.682;37.462;2023-11-22T13:27:09;3.75;;;2.72;;
51384;SDS011;37478;55.682;37.462;2023-11-22T13:29:34;10.30;;;4.07;;
51384;SDS011;37478;55.682;37.462;2023-11-22T13:32:00;10.47;;;4.37;;
51384;SDS011;37478;55.682;37.462;2023-11-22T13:34:25;12.47;;;4.30;;
51384;SDS011;37478;55.682;37.462;2023-11-22T13:36:50;12.27;;;5.57;;
51384;SDS011;37478;55.682;37.462;2023-11-22T13:39:15;9.90;;;4.57;;
51384;SDS011;37478;55.682;37.462;2023-11-22T13:41:41;17.20;;;6.17;;
51384;SDS011;37478;55.682;37.462;2023-11-22T13:44:07;9.33;;;3.97;;
51384;SDS011;37478;55.682;37.462;2023-11-22T13:46:32;6.03;;;3.97;;
51384;SDS011;37478;55.682;37.462;2023-11-22T13:48:58;8.67;;;4.20;;
51384;SDS011;37478;55.682;37.462;2023-11-22T13:51:24;7.80;;;4.10;;
51384;SDS011;37478;55.682;37.462;2023-11-22T13:53:50;8.80;;;3.93;;
51384;SDS011;37478;55.682;37.462;2023-11-22T13:56:18;8.57;;;4.20;;
51384;SDS011;37478;55.682;37.462;2023-11-22T13:58:43;5.60;;;3.50;;
51384;SDS011;37478;55.682;37.462;2023-11-22T14:01:09;7.83;;;3.60;;
51384;SDS011;37478;55.682;37.462;2023-11-22T14:03:40;11.10;;;3.40;;
51384;SDS011;37478;55.682;37.462;2023-11-22T14:06:05;7.70;;;3.40;;
51384;SDS011;37478;55.682;37.462;2023-11-22T14:08:31;17.63;;;2.87;;
51384;SDS011;37478;55.682;37.462;2023-11-22T14:10:56;7.60;;;3.80;;
51384;SDS011;37478;55.682;37.462;2023-11-22T14:13:21;6.10;;;3.17;;
51384;SDS011;37478;55.682;37.462;2023-11-22T14:15:47;7.53;;;3.67;;
51384;SDS011;37478;55.682;37.462;2023-11-22T14:18:12;10.33;;;5.13;;
51384;SDS011;37478;55.682;37.462;2023-11-22T14:20:37;7.13;;;4.73;;
51384;SDS011;37478;55.682;37.462;2023-11-22T14:23:03;17.03;;;6.20;;
51384;SDS011;37478;55.682;37.462;2023-11-22T14:25:28;6.83;;;3.67;;
51384;SDS011;37478;55.682;37.462;2023-11-22T14:27:54;12.83;;;5.30;;
51384;SDS011;37478;55.682;37.462;2023-11-22T14:30:21;9.50;;;4.77;;